Terminal Aerodrome Forecast
Issued by NWS

Home | Current Version | Previous Version | Text Only | Print | Product List | Glossary On
Versions: 1 2 3 4 5 6 7 8 9 10 11 12 13 14 15
000
FTUS45 KVEF 292127 AAA
TAFBIH
TAF AMD
KBIH 292127Z 2921/3018 25015G23KT 5SM FU SCT025 BKN050
      TEMPO 2921/3001 1 1/2SM FU SCT020 BKN035
     FM300100 26010KT 5SM FU BKN040
     FM300500 33005KT 5SM FU BKN040
     FM301600 VRB06KT P6SM SCT250=

USA.gov is the U.S. government's official web portal to all federal, state and local government web resources and services.